sensor_id;sensor_type;location;lat;lon;timestamp;pressure;altitude;pressure_sealevel;temperature
70050;BMP180;57391;51.306;22.680;2023-07-22T00:00:31;99172.60;;;17.80
70050;BMP180;57391;51.306;22.680;2023-07-22T00:03:18;99171.40;;;17.80
70050;BMP180;57391;51.306;22.680;2023-07-22T00:05:45;99173.60;;;17.70
70050;BMP180;57391;51.306;22.680;2023-07-22T00:08:12;99173.40;;;17.70
70050;BMP180;57391;51.306;22.680;2023-07-22T00:10:42;99170.00;;;17.70
70050;BMP180;57391;51.306;22.680;2023-07-22T00:13:09;99174.00;;;17.68
70050;BMP180;57391;51.306;22.680;2023-07-22T00:15:36;99172.20;;;17.60
70050;BMP180;57391;51.306;22.680;2023-07-22T00:18:03;99166.00;;;17.60
70050;BMP180;57391;51.306;22.680;2023-07-22T00:20:30;99168.00;;;17.60
70050;BMP180;57391;51.306;22.680;2023-07-22T00:22:56;99165.60;;;17.60
70050;BMP180;57391;51.306;22.680;2023-07-22T00:25:24;99165.20;;;17.60
70050;BMP180;57391;51.306;22.680;2023-07-22T00:27:51;99154.40;;;17.60
70050;BMP180;57391;51.306;22.680;2023-07-22T00:30:18;99149.80;;;17.54
70050;BMP180;57391;51.306;22.680;2023-07-22T00:32:44;99153.00;;;17.54
70050;BMP180;57391;51.306;22.680;2023-07-22T00:35:12;99149.20;;;17.58
70050;BMP180;57391;51.306;22.680;2023-07-22T00:37:39;99145.00;;;17.50
70050;BMP180;57391;51.306;22.680;2023-07-22T00:40:07;99142.60;;;17.50
70050;BMP180;57391;51.306;22.680;2023-07-22T00:42:39;99134.60;;;17.50
70050;BMP180;57391;51.306;22.680;2023-07-22T00:45:07;99129.20;;;17.50
70050;BMP180;57391;51.306;22.680;2023-07-22T00:47:35;99133.60;;;17.50
70050;BMP180;57391;51.306;22.680;2023-07-22T00:50:04;99133.00;;;17.50
70050;BMP180;57391;51.306;22.680;2023-07-22T00:52:34;99129.00;;;17.44
70050;BMP180;57391;51.306;22.680;2023-07-22T00:55:02;99125.00;;;17.40
70050;BMP180;57391;51.306;22.680;2023-07-22T00:57:29;99124.20;;;17.40
70050;BMP180;57391;51.306;22.680;2023-07-22T00:59:56;99119.80;;;17.40
70050;BMP180;57391;51.306;22.680;2023-07-22T01:02:23;99116.80;;;17.40
70050;BMP180;57391;51.306;22.680;2023-07-22T01:04:50;99117.20;;;17.40
70050;BMP180;57391;51.306;22.680;2023-07-22T01:07:19;99118.00;;;17.40
70050;BMP180;57391;51.306;22.680;2023-07-22T01:09:46;99122.80;;;17.40
70050;BMP180;57391;51.306;22.680;2023-07-22T01:12:13;99126.20;;;17.40
70050;BMP180;57391;51.306;22.680;2023-07-22T01:14:41;99121.20;;;17.50
70050;BMP180;57391;51.306;22.680;2023-07-22T01:17:10;99118.60;;;17.50
70050;BMP180;57391;51.306;22.680;2023-07-22T01:19:38;99112.00;;;17.50
70050;BMP180;57391;51.306;22.680;2023-07-22T01:22:07;99116.00;;;17.50
70050;BMP180;57391;51.306;22.680;2023-07-22T01:24:34;99116.40;;;17.60
70050;BMP180;57391;51.306;22.680;2023-07-22T01:27:02;99120.00;;;17.60
70050;BMP180;57391;51.306;22.680;2023-07-22T01:29:30;99112.80;;;17.60
70050;BMP180;57391;51.306;22.680;2023-07-22T01:31:56;99112.80;;;17.60
70050;BMP180;57391;51.306;22.680;2023-07-22T01:34:23;99111.40;;;17.60
70050;BMP180;57391;51.306;22.680;2023-07-22T01:36:53;99110.00;;;17.60
70050;BMP180;57391;51.306;22.680;2023-07-22T01:39:20;99107.80;;;17.66
70050;BMP180;57391;51.306;22.680;2023-07-22T01:41:48;99106.60;;;17.62
70050;BMP180;57391;51.306;22.680;2023-07-22T01:44:15;99100.80;;;17.64
70050;BMP180;57391;51.306;22.680;2023-07-22T01:46:42;99099.40;;;17.64
70050;BMP180;57391;51.306;22.680;2023-07-22T01:49:12;99095.80;;;17.68
70050;BMP180;57391;51.306;22.680;2023-07-22T01:51:40;99097.60;;;17.70
70050;BMP180;57391;51.306;22.680;2023-07-22T01:54:07;99092.40;;;17.70
70050;BMP180;57391;51.306;22.680;2023-07-22T01:56:36;99090.80;;;17.70
70050;BMP180;57391;51.306;22.680;2023-07-22T01:59:04;99087.40;;;17.70
70050;BMP180;57391;51.306;22.680;2023-07-22T02:01:32;99085.80;;;17.70
70050;BMP180;57391;51.306;22.680;2023-07-22T02:03:59;99084.00;;;17.74
70050;BMP180;57391;51.306;22.680;2023-07-22T02:06:26;99081.60;;;17.80
70050;BMP180;57391;51.306;22.680;2023-07-22T02:08:53;99082.20;;;17.80
70050;BMP180;57391;51.306;22.680;2023-07-22T02:11:20;99075.20;;;17.80
70050;BMP180;57391;51.306;22.680;2023-07-22T02:13:47;99079.80;;;17.80
70050;BMP180;57391;51.306;22.680;2023-07-22T02:16:14;99074.60;;;17.80
70050;BMP180;57391;51.306;22.680;2023-07-22T02:18:41;99078.00;;;17.80
70050;BMP180;57391;51.306;22.680;2023-07-22T02:21:08;99078.60;;;17.80
70050;BMP180;57391;51.306;22.680;2023-07-22T02:23:35;99080.40;;;17.84
70050;BMP180;57391;51.306;22.680;2023-07-22T02:26:02;99086.00;;;17.90
70050;BMP180;57391;51.306;22.680;2023-07-22T02:28:29;99087.20;;;17.90
70050;BMP180;57391;51.306;22.680;2023-07-22T02:31:02;99086.80;;;17.90
70050;BMP180;57391;51.306;22.680;2023-07-22T02:33:33;99082.60;;;17.90
70050;BMP180;57391;51.306;22.680;2023-07-22T02:35:59;99086.20;;;17.92
70050;BMP180;57391;51.306;22.680;2023-07-22T02:38:26;99085.80;;;17.94
70050;BMP180;57391;51.306;22.680;2023-07-22T02:40:53;99086.80;;;18.00
70050;BMP180;57391;51.306;22.680;2023-07-22T02:43:20;99093.80;;;18.00
70050;BMP180;57391;51.306;22.680;2023-07-22T02:45:47;99089.40;;;18.00
70050;BMP180;57391;51.306;22.680;2023-07-22T02:48:14;99097.40;;;17.96
70050;BMP180;57391;51.306;22.680;2023-07-22T02:50:41;99109.40;;;18.00
70050;BMP180;57391;51.306;22.680;2023-07-22T02:53:08;99124.20;;;18.00
70050;BMP180;57391;51.306;22.680;2023-07-22T02:55:34;99138.40;;;17.98
70050;BMP180;57391;51.306;22.680;2023-07-22T02:58:01;99155.60;;;17.90
70050;BMP180;57391;51.306;22.680;2023-07-22T03:00:28;99162.60;;;17.72
70050;BMP180;57391;51.306;22.680;2023-07-22T03:02:56;99161.60;;;17.60
70050;BMP180;57391;51.306;22.680;2023-07-22T03:05:32;99165.00;;;17.50
70050;BMP180;57391;51.306;22.680;2023-07-22T03:07:59;99157.20;;;17.50
70050;BMP180;57391;51.306;22.680;2023-07-22T03:10:26;99152.80;;;17.40
70050;BMP180;57391;51.306;22.680;2023-07-22T03:12:53;99152.80;;;17.40
70050;BMP180;57391;51.306;22.680;2023-07-22T03:15:25;99148.60;;;17.40
70050;BMP180;57391;51.306;22.680;2023-07-22T03:17:53;99146.00;;;17.40
70050;BMP180;57391;51.306;22.680;2023-07-22T03:20:20;99152.20;;;17.40
70050;BMP180;57391;51.306;22.680;2023-07-22T03:22:49;99152.60;;;17.40
70050;BMP180;57391;51.306;22.680;2023-07-22T03:25:16;99149.20;;;17.42
70050;BMP180;57391;51.306;22.680;2023-07-22T03:27:44;99140.40;;;17.50
70050;BMP180;57391;51.306;22.680;2023-07-22T03:30:14;99140.80;;;17.50
70050;BMP180;57391;51.306;22.680;2023-07-22T03:32:44;99133.80;;;17.50
70050;BMP180;57391;51.306;22.680;2023-07-22T03:35:11;99120.20;;;17.54
70050;BMP180;57391;51.306;22.680;2023-07-22T03:37:40;99111.00;;;17.60
70050;BMP180;57391;51.306;22.680;2023-07-22T03:40:08;99110.40;;;17.60
70050;BMP180;57391;51.306;22.680;2023-07-22T03:43:01;99109.00;;;17.70
70050;BMP180;57391;51.306;22.680;2023-07-22T03:45:28;99117.20;;;17.70
70050;BMP180;57391;51.306;22.680;2023-07-22T03:48:00;99109.60;;;17.70
70050;BMP180;57391;51.306;22.680;2023-07-22T03:50:27;99101.20;;;17.70
70050;BMP180;57391;51.306;22.680;2023-07-22T03:52:54;99088.40;;;17.80
70050;BMP180;57391;51.306;22.680;2023-07-22T03:55:21;99081.40;;;17.80
70050;BMP180;57391;51.306;22.680;2023-07-22T03:57:48;99092.60;;;17.80
70050;BMP180;57391;51.306;22.680;2023-07-22T04:00:18;99096.20;;;17.84
70050;BMP180;57391;51.306;22.680;2023-07-22T04:02:47;99099.00;;;17.90
70050;BMP180;57391;51.306;22.680;2023-07-22T04:05:14;99102.60;;;17.90
70050;BMP180;57391;51.306;22.680;2023-07-22T04:07:44;99101.80;;;17.90
70050;BMP180;57391;51.306;22.680;2023-07-22T04:10:11;99101.40;;;17.90
70050;BMP180;57391;51.306;22.680;2023-07-22T04:12:38;99099.00;;;18.00
70050;BMP180;57391;51.306;22.680;2023-07-22T04:15:06;99092.00;;;18.00
70050;BMP180;57391;51.306;22.680;2023-07-22T04:17:35;99082.20;;;18.00
70050;BMP180;57391;51.306;22.680;2023-07-22T04:20:02;99070.40;;;18.00
70050;BMP180;57391;51.306;22.680;2023-07-22T04:22:35;99060.80;;;18.00
70050;BMP180;57391;51.306;22.680;2023-07-22T04:25:03;99061.60;;;18.04
70050;BMP180;57391;51.306;22.680;2023-07-22T04:27:31;99064.40;;;18.10
70050;BMP180;57391;51.306;22.680;2023-07-22T04:29:58;99067.00;;;18.10
70050;BMP180;57391;51.306;22.680;2023-07-22T04:32:25;99073.00;;;18.10
70050;BMP180;57391;51.306;22.680;2023-07-22T04:34:52;99076.20;;;18.10
70050;BMP180;57391;51.306;22.680;2023-07-22T04:37:19;99080.80;;;18.10
70050;BMP180;57391;51.306;22.680;2023-07-22T04:39:49;99083.20;;;18.10
70050;BMP180;57391;51.306;22.680;2023-07-22T04:42:16;99090.80;;;18.10
70050;BMP180;57391;51.306;22.680;2023-07-22T04:44:45;99093.40;;;18.10
70050;BMP180;57391;51.306;22.680;2023-07-22T04:47:12;99094.20;;;18.00
70050;BMP180;57391;51.306;22.680;2023-07-22T04:49:39;99094.00;;;17.90
70050;BMP180;57391;51.306;22.680;2023-07-22T04:52:09;99092.40;;;17.80
70050;BMP180;57391;51.306;22.680;2023-07-22T04:54:35;99096.60;;;17.80
70050;BMP180;57391;51.306;22.680;2023-07-22T04:57:03;99088.80;;;17.78
70050;BMP180;57391;51.306;22.680;2023-07-22T04:59:30;99088.00;;;17.70
70050;BMP180;57391;51.306;22.680;2023-07-22T05:01:56;99085.20;;;17.70
70050;BMP180;57391;51.306;22.680;2023-07-22T05:04:23;99086.40;;;17.70
70050;BMP180;57391;51.306;22.680;2023-07-22T05:06:50;99086.20;;;17.70
70050;BMP180;57391;51.306;22.680;2023-07-22T05:09:17;99089.00;;;17.60
70050;BMP180;57391;51.306;22.680;2023-07-22T05:11:44;99089.60;;;17.60
70050;BMP180;57391;51.306;22.680;2023-07-22T05:14:11;99091.20;;;17.62
70050;BMP180;57391;51.306;22.680;2023-07-22T05:16:37;99093.80;;;17.68
70050;BMP180;57391;51.306;22.680;2023-07-22T05:19:04;99096.40;;;17.70
70050;BMP180;57391;51.306;22.680;2023-07-22T05:21:32;99101.40;;;17.70
70050;BMP180;57391;51.306;22.680;2023-07-22T05:23:59;99106.80;;;17.70
70050;BMP180;57391;51.306;22.680;2023-07-22T05:26:26;99110.00;;;17.80
70050;BMP180;57391;51.306;22.680;2023-07-22T05:28:52;99108.20;;;17.80
70050;BMP180;57391;51.306;22.680;2023-07-22T05:31:19;99109.40;;;17.88
70050;BMP180;57391;51.306;22.680;2023-07-22T05:33:46;99111.20;;;17.90
70050;BMP180;57391;51.306;22.680;2023-07-22T05:36:13;99116.00;;;18.00
70050;BMP180;57391;51.306;22.680;2023-07-22T05:38:40;99124.00;;;18.00
70050;BMP180;57391;51.306;22.680;2023-07-22T05:41:07;99141.40;;;18.10
70050;BMP180;57391;51.306;22.680;2023-07-22T05:43:34;99147.00;;;18.20
70050;BMP180;57391;51.306;22.680;2023-07-22T05:46:00;99159.20;;;18.20
70050;BMP180;57391;51.306;22.680;2023-07-22T05:48:27;99159.00;;;18.30
70050;BMP180;57391;51.306;22.680;2023-07-22T05:50:54;99156.40;;;18.40
70050;BMP180;57391;51.306;22.680;2023-07-22T05:53:21;99162.40;;;18.48
70050;BMP180;57391;51.306;22.680;2023-07-22T05:55:48;99161.00;;;18.54
70050;BMP180;57391;51.306;22.680;2023-07-22T05:58:18;99163.60;;;18.64
70050;BMP180;57391;51.306;22.680;2023-07-22T06:00:45;99163.60;;;18.70
70050;BMP180;57391;51.306;22.680;2023-07-22T06:03:13;99158.20;;;18.80
70050;BMP180;57391;51.306;22.680;2023-07-22T06:05:40;99151.80;;;18.90
70050;BMP180;57391;51.306;22.680;2023-07-22T06:08:07;99144.40;;;19.00
70050;BMP180;57391;51.306;22.680;2023-07-22T06:10:34;99147.00;;;19.10
70050;BMP180;57391;51.306;22.680;2023-07-22T06:13:01;99144.60;;;19.16
70050;BMP180;57391;51.306;22.680;2023-07-22T06:15:28;99147.40;;;19.20
70050;BMP180;57391;51.306;22.680;2023-07-22T06:17:55;99147.20;;;19.30
70050;BMP180;57391;51.306;22.680;2023-07-22T06:20:22;99148.20;;;19.40
70050;BMP180;57391;51.306;22.680;2023-07-22T06:22:49;99149.40;;;19.40
70050;BMP180;57391;51.306;22.680;2023-07-22T06:25:16;99161.40;;;19.50
70050;BMP180;57391;51.306;22.680;2023-07-22T06:27:43;99174.80;;;19.60
70050;BMP180;57391;51.306;22.680;2023-07-22T06:30:10;99174.20;;;19.62
70050;BMP180;57391;51.306;22.680;2023-07-22T06:32:38;99172.00;;;19.70
70050;BMP180;57391;51.306;22.680;2023-07-22T06:35:05;99177.40;;;19.70
70050;BMP180;57391;51.306;22.680;2023-07-22T06:37:32;99178.60;;;19.80
70050;BMP180;57391;51.306;22.680;2023-07-22T06:39:59;99188.20;;;20.00
70050;BMP180;57391;51.306;22.680;2023-07-22T06:42:26;99194.00;;;20.10
70050;BMP180;57391;51.306;22.680;2023-07-22T06:44:53;99193.80;;;20.30
70050;BMP180;57391;51.306;22.680;2023-07-22T06:47:20;99190.00;;;20.66
70050;BMP180;57391;51.306;22.680;2023-07-22T06:49:47;99184.20;;;20.80
70050;BMP180;57391;51.306;22.680;2023-07-22T06:52:14;99179.80;;;20.98
70050;BMP180;57391;51.306;22.680;2023-07-22T06:54:41;99188.60;;;21.10
70050;BMP180;57391;51.306;22.680;2023-07-22T06:57:08;99181.20;;;21.20
70050;BMP180;57391;51.306;22.680;2023-07-22T06:59:35;99175.80;;;21.46
70050;BMP180;57391;51.306;22.680;2023-07-22T07:02:04;99174.80;;;21.88
70050;BMP180;57391;51.306;22.680;2023-07-22T07:04:31;99176.80;;;22.40
70050;BMP180;57391;51.306;22.680;2023-07-22T07:06:58;99173.80;;;22.92
70050;BMP180;57391;51.306;22.680;2023-07-22T07:09:26;99173.00;;;23.46
70050;BMP180;57391;51.306;22.680;2023-07-22T07:11:52;99179.80;;;23.98
70050;BMP180;57391;51.306;22.680;2023-07-22T07:14:23;99184.20;;;24.54
70050;BMP180;57391;51.306;22.680;2023-07-22T07:16:51;99194.80;;;25.10
70050;BMP180;57391;51.306;22.680;2023-07-22T07:19:18;99189.40;;;25.20
70050;BMP180;57391;51.306;22.680;2023-07-22T07:21:45;99191.00;;;25.32
70050;BMP180;57391;51.306;22.680;2023-07-22T07:24:12;99194.40;;;25.58
70050;BMP180;57391;51.306;22.680;2023-07-22T07:26:38;99195.00;;;25.90
70050;BMP180;57391;51.306;22.680;2023-07-22T07:29:05;99202.00;;;26.20
70050;BMP180;57391;51.306;22.680;2023-07-22T07:31:32;99198.00;;;26.28
70050;BMP180;57391;51.306;22.680;2023-07-22T07:33:59;99200.20;;;26.64
70050;BMP180;57391;51.306;22.680;2023-07-22T07:36:26;99201.40;;;26.82
70050;BMP180;57391;51.306;22.680;2023-07-22T07:38:53;99195.80;;;26.94
70050;BMP180;57391;51.306;22.680;2023-07-22T07:41:21;99198.00;;;27.20
70050;BMP180;57391;51.306;22.680;2023-07-22T07:43:48;99204.60;;;27.30
70050;BMP180;57391;51.306;22.680;2023-07-22T07:46:26;99201.20;;;27.30
70050;BMP180;57391;51.306;22.680;2023-07-22T07:49:01;99198.60;;;27.16
70050;BMP180;57391;51.306;22.680;2023-07-22T07:51:30;99199.80;;;27.00
70050;BMP180;57391;51.306;22.680;2023-07-22T07:53:59;99199.20;;;26.90
70050;BMP180;57391;51.306;22.680;2023-07-22T07:56:26;99199.00;;;26.70
70050;BMP180;57391;51.306;22.680;2023-07-22T07:58:54;99203.80;;;26.70
70050;BMP180;57391;51.306;22.680;2023-07-22T08:01:21;99209.20;;;26.60
70050;BMP180;57391;51.306;22.680;2023-07-22T08:03:49;99213.40;;;26.34
70050;BMP180;57391;51.306;22.680;2023-07-22T08:06:16;99214.00;;;26.10
70050;BMP180;57391;51.306;22.680;2023-07-22T08:08:43;99212.20;;;25.90
70050;BMP180;57391;51.306;22.680;2023-07-22T08:11:13;99209.80;;;25.70
70050;BMP180;57391;51.306;22.680;2023-07-22T08:13:42;99216.60;;;25.54
70050;BMP180;57391;51.306;22.680;2023-07-22T08:16:11;99218.80;;;25.30
70050;BMP180;57391;51.306;22.680;2023-07-22T08:18:39;99226.00;;;25.30
70050;BMP180;57391;51.306;22.680;2023-07-22T08:21:07;99231.60;;;25.20
70050;BMP180;57391;51.306;22.680;2023-07-22T08:23:36;99236.60;;;25.20
70050;BMP180;57391;51.306;22.680;2023-07-22T08:26:04;99237.20;;;25.10
70050;BMP180;57391;51.306;22.680;2023-07-22T08:28:32;99234.00;;;25.08
70050;BMP180;57391;51.306;22.680;2023-07-22T08:30:59;99226.40;;;25.00
70050;BMP180;57391;51.306;22.680;2023-07-22T08:33:27;99226.00;;;25.00
70050;BMP180;57391;51.306;22.680;2023-07-22T08:35:54;99230.80;;;25.20
70050;BMP180;57391;51.306;22.680;2023-07-22T08:38:22;99232.20;;;25.14
70050;BMP180;57391;51.306;22.680;2023-07-22T08:40:50;99238.00;;;25.08
70050;BMP180;57391;51.306;22.680;2023-07-22T08:43:22;99244.20;;;25.00
70050;BMP180;57391;51.306;22.680;2023-07-22T08:45:52;99238.40;;;25.00
70050;BMP180;57391;51.306;22.680;2023-07-22T08:48:21;99238.20;;;25.20
70050;BMP180;57391;51.306;22.680;2023-07-22T08:51:06;99232.20;;;25.50
70050;BMP180;57391;51.306;22.680;2023-07-22T08:53:36;99229.20;;;25.90
70050;BMP180;57391;51.306;22.680;2023-07-22T08:56:04;99235.00;;;26.10
70050;BMP180;57391;51.306;22.680;2023-07-22T08:58:32;99238.40;;;26.20
70050;BMP180;57391;51.306;22.680;2023-07-22T09:01:02;99243.80;;;26.14
70050;BMP180;57391;51.306;22.680;2023-07-22T09:03:29;99235.80;;;26.10
70050;BMP180;57391;51.306;22.680;2023-07-22T09:05:56;99232.40;;;26.10
70050;BMP180;57391;51.306;22.680;2023-07-22T09:08:24;99228.80;;;26.00
70050;BMP180;57391;51.306;22.680;2023-07-22T09:10:51;99227.20;;;25.80
70050;BMP180;57391;51.306;22.680;2023-07-22T09:13:19;99229.20;;;25.60
70050;BMP180;57391;51.306;22.680;2023-07-22T09:15:46;99232.60;;;25.60
70050;BMP180;57391;51.306;22.680;2023-07-22T09:18:16;99242.20;;;25.60
70050;BMP180;57391;51.306;22.680;2023-07-22T09:20:43;99240.80;;;25.50
70050;BMP180;57391;51.306;22.680;2023-07-22T09:23:11;99242.20;;;25.50
70050;BMP180;57391;51.306;22.680;2023-07-22T09:25:39;99243.00;;;25.50
70050;BMP180;57391;51.306;22.680;2023-07-22T09:28:06;99244.80;;;25.76
70050;BMP180;57391;51.306;22.680;2023-07-22T09:30:37;99236.00;;;25.80
70050;BMP180;57391;51.306;22.680;2023-07-22T09:33:21;99235.60;;;26.06
70050;BMP180;57391;51.306;22.680;2023-07-22T09:35:49;99235.80;;;26.28
70050;BMP180;57391;51.306;22.680;2023-07-22T09:38:24;99243.40;;;26.20
70050;BMP180;57391;51.306;22.680;2023-07-22T09:40:52;99244.20;;;26.00
70050;BMP180;57391;51.306;22.680;2023-07-22T09:43:19;99250.40;;;25.68
70050;BMP180;57391;51.306;22.680;2023-07-22T09:45:48;99251.80;;;25.36
70050;BMP180;57391;51.306;22.680;2023-07-22T09:48:16;99253.40;;;25.10
70050;BMP180;57391;51.306;22.680;2023-07-22T09:50:43;99255.60;;;24.90
70050;BMP180;57391;51.306;22.680;2023-07-22T09:53:15;99250.40;;;24.90
70050;BMP180;57391;51.306;22.680;2023-07-22T09:55:42;99254.20;;;25.10
70050;BMP180;57391;51.306;22.680;2023-07-22T09:58:10;99255.00;;;25.20
70050;BMP180;57391;51.306;22.680;2023-07-22T10:00:47;99252.80;;;25.30
70050;BMP180;57391;51.306;22.680;2023-07-22T10:03:16;99253.60;;;25.50
70050;BMP180;57391;51.306;22.680;2023-07-22T10:05:48;99256.20;;;25.50
70050;BMP180;57391;51.306;22.680;2023-07-22T10:08:19;99258.80;;;25.54
70050;BMP180;57391;51.306;22.680;2023-07-22T10:10:53;99256.20;;;25.60
70050;BMP180;57391;51.306;22.680;2023-07-22T10:13:20;99262.60;;;25.66
70050;BMP180;57391;51.306;22.680;2023-07-22T10:15:48;99265.80;;;25.70
70050;BMP180;57391;51.306;22.680;2023-07-22T10:18:15;99261.40;;;25.80
70050;BMP180;57391;51.306;22.680;2023-07-22T10:20:44;99268.40;;;25.78
70050;BMP180;57391;51.306;22.680;2023-07-22T10:23:12;99266.40;;;25.90
70050;BMP180;57391;51.306;22.680;2023-07-22T10:25:42;99267.80;;;25.90
70050;BMP180;57391;51.306;22.680;2023-07-22T10:28:10;99266.80;;;26.10
70050;BMP180;57391;51.306;22.680;2023-07-22T10:30:37;99272.80;;;26.30
70050;BMP180;57391;51.306;22.680;2023-07-22T10:33:04;99276.60;;;26.30
70050;BMP180;57391;51.306;22.680;2023-07-22T10:40:52;99285.00;;;25.90
70050;BMP180;57391;51.306;22.680;2023-07-22T10:43:34;99287.00;;;25.60
70050;BMP180;57391;51.306;22.680;2023-07-22T10:46:37;99285.00;;;25.40
70050;BMP180;57391;51.306;22.680;2023-07-22T10:49:15;99288.20;;;25.30
70050;BMP180;57391;51.306;22.680;2023-07-22T10:51:51;99290.20;;;25.20
70050;BMP180;57391;51.306;22.680;2023-07-22T10:54:35;99292.80;;;25.00
70050;BMP180;57391;51.306;22.680;2023-07-22T10:57:22;99285.60;;;24.90
70050;BMP180;57391;51.306;22.680;2023-07-22T10:59:50;99287.60;;;24.92
70050;BMP180;57391;51.306;22.680;2023-07-22T11:02:44;99296.60;;;25.00
70050;BMP180;57391;51.306;22.680;2023-07-22T11:05:11;99291.20;;;25.14
70050;BMP180;57391;51.306;22.680;2023-07-22T11:07:44;99287.20;;;25.30
70050;BMP180;57391;51.306;22.680;2023-07-22T11:10:16;99293.40;;;25.58
70050;BMP180;57391;51.306;22.680;2023-07-22T11:12:44;99296.40;;;25.84
70050;BMP180;57391;51.306;22.680;2023-07-22T11:15:15;99291.40;;;26.14
70050;BMP180;57391;51.306;22.680;2023-07-22T11:17:43;99297.20;;;26.40
70050;BMP180;57391;51.306;22.680;2023-07-22T11:20:10;99291.60;;;26.52
70050;BMP180;57391;51.306;22.680;2023-07-22T11:22:40;99293.00;;;26.60
70050;BMP180;57391;51.306;22.680;2023-07-22T11:25:08;99307.80;;;26.70
70050;BMP180;57391;51.306;22.680;2023-07-22T11:27:35;99304.20;;;26.80
70050;BMP180;57391;51.306;22.680;2023-07-22T11:30:03;99308.20;;;26.80
70050;BMP180;57391;51.306;22.680;2023-07-22T11:32:32;99320.40;;;26.60
70050;BMP180;57391;51.306;22.680;2023-07-22T11:34:59;99320.40;;;26.36
70050;BMP180;57391;51.306;22.680;2023-07-22T11:37:27;99328.60;;;26.20
70050;BMP180;57391;51.306;22.680;2023-07-22T11:40:00;99327.40;;;26.00
70050;BMP180;57391;51.306;22.680;2023-07-22T11:42:28;99330.80;;;25.90
70050;BMP180;57391;51.306;22.680;2023-07-22T11:44:56;99337.20;;;26.00
70050;BMP180;57391;51.306;22.680;2023-07-22T11:47:29;99333.00;;;26.20
70050;BMP180;57391;51.306;22.680;2023-07-22T11:49:58;99326.00;;;26.40
70050;BMP180;57391;51.306;22.680;2023-07-22T11:52:25;99330.40;;;26.50
70050;BMP180;57391;51.306;22.680;2023-07-22T11:54:52;99324.80;;;26.60
70050;BMP180;57391;51.306;22.680;2023-07-22T11:57:23;99329.20;;;26.58
70050;BMP180;57391;51.306;22.680;2023-07-22T11:59:53;99331.60;;;26.42
70050;BMP180;57391;51.306;22.680;2023-07-22T12:02:23;99331.00;;;26.20
70050;BMP180;57391;51.306;22.680;2023-07-22T12:07:32;99341.00;;;25.90
70050;BMP180;57391;51.306;22.680;2023-07-22T12:10:03;99346.40;;;25.88
70050;BMP180;57391;51.306;22.680;2023-07-22T12:12:43;99344.80;;;25.86
70050;BMP180;57391;51.306;22.680;2023-07-22T12:15:21;99340.00;;;25.90
70050;BMP180;57391;51.306;22.680;2023-07-22T12:17:52;99342.20;;;25.94
70050;BMP180;57391;51.306;22.680;2023-07-22T12:20:29;99342.80;;;26.00
70050;BMP180;57391;51.306;22.680;2023-07-22T12:22:57;99337.60;;;26.16
70050;BMP180;57391;51.306;22.680;2023-07-22T12:25:24;99328.60;;;26.30
70050;BMP180;57391;51.306;22.680;2023-07-22T12:27:52;99336.60;;;26.30
70050;BMP180;57391;51.306;22.680;2023-07-22T12:30:19;99336.40;;;26.30
70050;BMP180;57391;51.306;22.680;2023-07-22T12:32:47;99332.40;;;26.30
70050;BMP180;57391;51.306;22.680;2023-07-22T12:35:14;99324.20;;;26.30
70050;BMP180;57391;51.306;22.680;2023-07-22T12:37:41;99324.60;;;26.40
70050;BMP180;57391;51.306;22.680;2023-07-22T12:40:09;99322.60;;;26.44
70050;BMP180;57391;51.306;22.680;2023-07-22T12:42:38;99324.80;;;26.60
70050;BMP180;57391;51.306;22.680;2023-07-22T12:45:06;99327.20;;;26.60
70050;BMP180;57391;51.306;22.680;2023-07-22T12:47:34;99331.20;;;26.60
70050;BMP180;57391;51.306;22.680;2023-07-22T12:50:01;99332.20;;;26.60
70050;BMP180;57391;51.306;22.680;2023-07-22T12:52:28;99332.60;;;26.50
70050;BMP180;57391;51.306;22.680;2023-07-22T12:57:31;99333.60;;;26.40
70050;BMP180;57391;51.306;22.680;2023-07-22T12:59:58;99332.20;;;26.40
70050;BMP180;57391;51.306;22.680;2023-07-22T13:02:25;99331.60;;;26.40
70050;BMP180;57391;51.306;22.680;2023-07-22T13:04:52;99330.40;;;26.38
70050;BMP180;57391;51.306;22.680;2023-07-22T13:07:19;99327.80;;;26.34
70050;BMP180;57391;51.306;22.680;2023-07-22T13:09:49;99324.00;;;26.30
70050;BMP180;57391;51.306;22.680;2023-07-22T13:12:29;99327.20;;;26.18
70050;BMP180;57391;51.306;22.680;2023-07-22T13:14:55;99329.60;;;26.00
70050;BMP180;57391;51.306;22.680;2023-07-22T13:17:22;99326.20;;;26.00
70050;BMP180;57391;51.306;22.680;2023-07-22T13:19:49;99330.60;;;26.00
70050;BMP180;57391;51.306;22.680;2023-07-22T13:22:16;99325.40;;;26.00
70050;BMP180;57391;51.306;22.680;2023-07-22T13:24:43;99323.60;;;26.00
70050;BMP180;57391;51.306;22.680;2023-07-22T13:27:10;99331.00;;;26.10
70050;BMP180;57391;51.306;22.680;2023-07-22T13:29:36;99323.00;;;26.18
70050;BMP180;57391;51.306;22.680;2023-07-22T13:32:04;99325.60;;;26.20
70050;BMP180;57391;51.306;22.680;2023-07-22T13:34:32;99326.80;;;26.20
70050;BMP180;57391;51.306;22.680;2023-07-22T13:36:58;99326.20;;;26.18
70050;BMP180;57391;51.306;22.680;2023-07-22T13:39:25;99328.80;;;26.12
70050;BMP180;57391;51.306;22.680;2023-07-22T13:41:52;99327.60;;;26.10
70050;BMP180;57391;51.306;22.680;2023-07-22T13:44:19;99325.20;;;26.10
70050;BMP180;57391;51.306;22.680;2023-07-22T13:46:46;99330.20;;;26.20
70050;BMP180;57391;51.306;22.680;2023-07-22T13:49:14;99326.60;;;26.20
70050;BMP180;57391;51.306;22.680;2023-07-22T13:51:42;99326.80;;;26.20
70050;BMP180;57391;51.306;22.680;2023-07-22T13:54:09;99325.40;;;26.20
70050;BMP180;57391;51.306;22.680;2023-07-22T13:56:35;99330.00;;;26.20
70050;BMP180;57391;51.306;22.680;2023-07-22T13:59:02;99332.80;;;26.26
70050;BMP180;57391;51.306;22.680;2023-07-22T14:01:31;99333.40;;;26.30
70050;BMP180;57391;51.306;22.680;2023-07-22T14:03:58;99332.20;;;26.30
70050;BMP180;57391;51.306;22.680;2023-07-22T14:06:24;99336.40;;;26.30
70050;BMP180;57391;51.306;22.680;2023-07-22T14:08:51;99334.40;;;26.40
70050;BMP180;57391;51.306;22.680;2023-07-22T14:11:18;99336.60;;;26.40
70050;BMP180;57391;51.306;22.680;2023-07-22T14:13:45;99337.80;;;26.40